createdAt,value
2023-08-17T00:01:02.471Z,5.10
2023-08-17T00:03:29.735Z,6.63
2023-08-17T00:05:56.977Z,5.05
2023-08-17T00:08:24.168Z,5.40
2023-08-17T00:10:51.475Z,5.13
2023-08-17T00:13:18.761Z,10.98
2023-08-17T00:15:46.438Z,5.47
2023-08-17T00:18:13.700Z,5.00
2023-08-17T00:20:40.933Z,5.35
2023-08-17T00:23:08.124Z,5.22
2023-08-17T00:25:35.417Z,4.80
2023-08-17T00:28:02.649Z,4.97
2023-08-17T00:30:29.874Z,5.38
2023-08-17T00:32:57.166Z,5.53
2023-08-17T00:35:24.378Z,4.95
2023-08-17T00:37:51.677Z,5.43
2023-08-17T00:40:18.969Z,4.90
2023-08-17T00:42:47.110Z,4.80
2023-08-17T00:45:15.758Z,5.10
2023-08-17T00:47:43.527Z,6.13
2023-08-17T00:50:11.441Z,4.50
2023-08-17T00:52:39.692Z,4.35
2023-08-17T00:55:07.124Z,4.60
2023-08-17T00:57:34.768Z,6.43
2023-08-17T01:00:05.367Z,5.00
2023-08-17T01:02:34.128Z,5.50
2023-08-17T01:05:02.289Z,6.10
2023-08-17T01:07:29.669Z,6.35
2023-08-17T01:09:57.051Z,4.85
2023-08-17T01:12:31.758Z,5.20
2023-08-17T01:15:05.703Z,5.67
2023-08-17T01:17:41.094Z,4.78
2023-08-17T01:20:14.668Z,4.85
2023-08-17T01:22:46.190Z,5.97
2023-08-17T01:25:13.440Z,6.57
2023-08-17T01:27:44.969Z,4.90
2023-08-17T01:30:17.354Z,4.78
2023-08-17T01:32:44.531Z,4.97
2023-08-17T01:35:24.833Z,5.13
2023-08-17T01:37:52.656Z,5.50
2023-08-17T01:40:20.252Z,5.10
2023-08-17T01:42:48.077Z,5.05
2023-08-17T01:45:15.332Z,5.68
2023-08-17T01:47:42.587Z,5.03
2023-08-17T01:50:10.026Z,4.90
2023-08-17T01:52:37.284Z,4.90
2023-08-17T01:55:04.661Z,5.20
2023-08-17T01:57:31.884Z,5.22
2023-08-17T01:59:59.124Z,5.13
2023-08-17T02:02:26.383Z,4.97
2023-08-17T02:04:53.665Z,5.78
2023-08-17T02:07:20.864Z,4.90
2023-08-17T02:09:48.053Z,5.20
2023-08-17T02:12:15.298Z,5.20
2023-08-17T02:14:42.532Z,5.50
2023-08-17T02:17:09.928Z,5.40
2023-08-17T02:19:37.122Z,5.45
2023-08-17T02:22:04.395Z,5.05
2023-08-17T02:24:31.652Z,6.15
2023-08-17T02:26:58.953Z,5.13
2023-08-17T02:29:26.158Z,5.55
2023-08-17T02:31:53.413Z,5.13
2023-08-17T02:34:20.752Z,5.20
2023-08-17T02:36:47.945Z,4.78
2023-08-17T02:39:15.197Z,4.90
2023-08-17T02:41:42.438Z,4.60
2023-08-17T02:44:09.644Z,5.22
2023-08-17T02:46:36.885Z,6.25
2023-08-17T02:49:04.163Z,5.25
2023-08-17T02:51:31.460Z,5.63
2023-08-17T02:53:58.750Z,5.13
2023-08-17T02:56:26.034Z,4.60
2023-08-17T02:58:53.262Z,5.35
2023-08-17T03:01:20.485Z,5.07
2023-08-17T03:03:47.746Z,4.47
2023-08-17T03:06:14.960Z,4.65
2023-08-17T03:08:42.156Z,7.25
2023-08-17T03:11:11.016Z,4.78
2023-08-17T03:13:38.287Z,5.30
2023-08-17T03:16:05.786Z,4.68
2023-08-17T03:18:33.017Z,4.55
2023-08-17T03:21:00.225Z,5.15
2023-08-17T03:23:27.443Z,4.88
2023-08-17T03:25:54.879Z,8.45
2023-08-17T03:28:22.119Z,5.07
2023-08-17T03:30:49.358Z,4.80
2023-08-17T03:33:16.639Z,5.55
2023-08-17T03:35:43.849Z,4.95
2023-08-17T03:38:11.101Z,5.28
2023-08-17T03:40:38.354Z,5.00
2023-08-17T03:43:05.700Z,5.80
2023-08-17T03:45:32.959Z,5.07
2023-08-17T03:48:00.139Z,4.78
2023-08-17T03:50:30.495Z,4.88
2023-08-17T03:52:57.650Z,5.38
2023-08-17T03:55:24.947Z,4.93
2023-08-17T03:57:52.176Z,4.95
2023-08-17T04:00:19.408Z,5.18
2023-08-17T04:02:46.718Z,5.18
2023-08-17T04:05:14.007Z,5.03
2023-08-17T04:07:41.323Z,5.10
2023-08-17T04:10:08.850Z,5.25
2023-08-17T04:12:36.171Z,5.07
2023-08-17T04:15:03.673Z,4.82
2023-08-17T04:17:31.130Z,6.57
2023-08-17T04:19:59.606Z,5.90
2023-08-17T04:22:26.901Z,4.93
2023-08-17T04:24:54.130Z,5.28
2023-08-17T04:27:21.395Z,4.75
2023-08-17T04:29:48.670Z,5.13
2023-08-17T04:32:16.757Z,5.38
2023-08-17T04:34:44.721Z,5.90
2023-08-17T04:37:11.990Z,5.03
2023-08-17T04:39:39.334Z,4.85
2023-08-17T04:42:06.662Z,5.18
2023-08-17T04:44:34.344Z,5.30
2023-08-17T04:47:01.567Z,4.80
2023-08-17T04:49:28.747Z,5.68
2023-08-17T04:51:55.990Z,5.05
2023-08-17T04:54:23.170Z,6.60
2023-08-17T04:56:50.540Z,5.35
2023-08-17T04:59:17.778Z,5.20
2023-08-17T05:01:45.025Z,4.90
2023-08-17T05:04:12.471Z,4.95
2023-08-17T05:06:39.836Z,6.00
2023-08-17T05:09:07.777Z,6.35
2023-08-17T05:11:35.072Z,5.28
2023-08-17T05:14:02.340Z,6.20
2023-08-17T05:16:29.664Z,4.97
2023-08-17T05:18:58.739Z,6.72
2023-08-17T05:21:25.947Z,5.85
2023-08-17T05:23:53.176Z,6.13
2023-08-17T05:26:20.370Z,5.10
2023-08-17T05:28:47.625Z,5.32
2023-08-17T05:31:14.808Z,5.13
2023-08-17T05:33:42.160Z,5.75
2023-08-17T05:36:09.595Z,5.63
2023-08-17T05:38:37.022Z,6.40
2023-08-17T05:41:04.270Z,5.03
2023-08-17T05:43:31.644Z,5.57
2023-08-17T05:46:00.476Z,5.70
2023-08-17T05:48:27.719Z,5.07
2023-08-17T05:50:54.931Z,5.40
2023-08-17T05:53:22.170Z,5.53
2023-08-17T05:55:49.481Z,6.53
2023-08-17T05:58:16.728Z,5.60
2023-08-17T06:00:44.033Z,7.10
2023-08-17T06:03:11.888Z,6.43
2023-08-17T06:05:39.563Z,6.50
2023-08-17T06:08:06.919Z,6.68
2023-08-17T06:10:34.145Z,6.75
2023-08-17T06:13:01.386Z,6.35
2023-08-17T06:15:28.674Z,7.63
2023-08-17T06:17:55.998Z,6.32
2023-08-17T06:20:23.332Z,7.40
2023-08-17T06:22:51.067Z,7.10
2023-08-17T06:25:18.395Z,11.13
2023-08-17T06:27:45.779Z,10.18
2023-08-17T06:30:13.438Z,7.63
2023-08-17T06:32:40.720Z,7.75
2023-08-17T06:35:08.463Z,6.80
2023-08-17T06:37:36.331Z,6.28
2023-08-17T06:40:04.439Z,6.38
2023-08-17T06:42:31.623Z,6.97
2023-08-17T06:44:58.895Z,8.70
2023-08-17T06:47:26.462Z,7.18
2023-08-17T06:49:53.972Z,7.55
2023-08-17T06:52:21.179Z,8.48
2023-08-17T06:54:48.404Z,7.15
2023-08-17T06:57:15.628Z,8.20
2023-08-17T06:59:42.888Z,7.15
2023-08-17T07:02:10.086Z,7.18
2023-08-17T07:04:37.345Z,7.45
2023-08-17T07:07:04.646Z,13.50
2023-08-17T07:09:31.877Z,8.80
2023-08-17T07:11:59.173Z,8.73
2023-08-17T07:14:26.596Z,9.30
2023-08-17T07:16:53.837Z,9.13
2023-08-17T07:19:25.454Z,9.05
2023-08-17T07:21:58.880Z,8.45
2023-08-17T07:24:26.124Z,11.40
2023-08-17T07:26:53.368Z,8.27
2023-08-17T07:29:20.600Z,12.95
2023-08-17T07:31:47.872Z,8.30
2023-08-17T07:34:15.167Z,8.15
2023-08-17T07:36:42.434Z,9.32
2023-08-17T07:39:09.649Z,7.13
2023-08-17T07:41:36.858Z,8.40
2023-08-17T07:44:04.194Z,10.73
2023-08-17T07:46:31.402Z,8.90
2023-08-17T07:48:58.945Z,10.15
2023-08-17T07:51:26.243Z,10.73
2023-08-17T07:53:53.574Z,11.02
2023-08-17T07:56:20.910Z,7.78
2023-08-17T07:58:48.154Z,9.50
2023-08-17T08:01:15.457Z,8.15
2023-08-17T08:03:42.674Z,8.85
2023-08-17T08:06:09.876Z,8.23
2023-08-17T08:08:37.067Z,8.13
2023-08-17T08:11:05.554Z,7.05
2023-08-17T08:13:33.246Z,7.35
2023-08-17T08:16:00.812Z,9.13
2023-08-17T08:18:28.105Z,6.82
2023-08-17T08:20:55.420Z,11.43
2023-08-17T08:23:22.648Z,8.70
2023-08-17T08:25:49.937Z,8.52
2023-08-17T08:28:17.381Z,6.97
2023-08-17T08:30:44.669Z,10.02
2023-08-17T08:33:11.879Z,7.57
2023-08-17T08:35:40.204Z,7.32
2023-08-17T08:38:07.384Z,7.65
2023-08-17T08:40:34.804Z,8.60
2023-08-17T08:43:02.078Z,8.00
2023-08-17T08:45:31.470Z,8.07
2023-08-17T08:47:59.903Z,7.25
2023-08-17T08:50:27.944Z,9.48
2023-08-17T08:53:00.867Z,8.05
2023-08-17T08:55:45.572Z,9.82
2023-08-17T08:58:13.454Z,12.15
2023-08-17T09:00:41.128Z,7.10
2023-08-17T09:03:08.456Z,9.07
2023-08-17T09:05:36.449Z,8.98
2023-08-17T09:08:04.174Z,8.90
2023-08-17T09:10:32.038Z,11.82
2023-08-17T09:13:05.557Z,11.45
2023-08-17T09:15:32.813Z,7.63
2023-08-17T09:18:00.280Z,8.13
2023-08-17T09:20:48.259Z,8.05
2023-08-17T09:23:16.446Z,6.85
2023-08-17T09:25:44.370Z,10.15
2023-08-17T09:28:13.897Z,8.73
2023-08-17T09:30:51.954Z,10.95
2023-08-17T09:33:19.224Z,19.50
2023-08-17T09:35:46.629Z,9.98
2023-08-17T09:38:13.857Z,8.55
2023-08-17T09:40:41.049Z,12.40
2023-08-17T09:43:08.323Z,9.40
2023-08-17T09:45:35.638Z,8.43
2023-08-17T09:48:03.888Z,10.65
2023-08-17T09:50:31.265Z,9.30
2023-08-17T09:52:59.204Z,8.38
2023-08-17T09:55:26.669Z,7.95
2023-08-17T09:57:54.181Z,7.97
2023-08-17T10:00:21.897Z,6.90
2023-08-17T10:02:52.652Z,6.85
2023-08-17T10:05:22.575Z,10.80
2023-08-17T10:07:56.244Z,10.90
2023-08-17T10:10:26.368Z,14.85
2023-08-17T10:13:14.616Z,18.20
2023-08-17T10:16:00.664Z,19.40
2023-08-17T10:18:32.769Z,32.80
2023-08-17T10:21:03.126Z,23.02
2023-08-17T10:23:31.114Z,18.23
2023-08-17T10:25:58.686Z,17.08
2023-08-17T10:28:26.261Z,14.38
2023-08-17T10:30:53.514Z,16.13
2023-08-17T10:33:21.137Z,16.10
2023-08-17T10:35:48.693Z,14.55
2023-08-17T10:38:17.763Z,18.83
2023-08-17T10:40:45.034Z,13.25
2023-08-17T10:43:13.278Z,16.63
2023-08-17T10:45:40.726Z,13.88
2023-08-17T10:48:10.993Z,13.55
2023-08-17T10:53:11.613Z,12.98
2023-08-17T10:55:43.374Z,11.05
2023-08-17T11:00:43.715Z,14.27
2023-08-17T11:03:12.322Z,10.60
2023-08-17T11:05:44.012Z,9.98
2023-08-17T11:08:22.401Z,11.75
2023-08-17T11:11:05.994Z,8.63
2023-08-17T11:13:34.586Z,9.70
2023-08-17T11:16:04.195Z,10.77
2023-08-17T11:18:32.190Z,8.82
2023-08-17T11:20:59.477Z,8.93
2023-08-17T11:23:26.853Z,7.75
2023-08-17T11:25:54.880Z,8.07
2023-08-17T11:28:23.065Z,7.63
2023-08-17T11:31:00.439Z,8.77
2023-08-17T11:33:28.113Z,7.55
2023-08-17T11:36:03.100Z,8.07
2023-08-17T11:38:34.410Z,9.40
2023-08-17T11:41:02.142Z,10.63
2023-08-17T11:43:30.547Z,9.77
2023-08-17T11:45:58.477Z,9.63
2023-08-17T11:48:27.061Z,9.73
2023-08-17T11:50:55.139Z,9.77
2023-08-17T11:53:22.723Z,10.13
2023-08-17T11:55:55.599Z,12.80
2023-08-17T11:58:37.723Z,12.52
2023-08-17T12:01:05.020Z,11.73
2023-08-17T12:03:33.451Z,11.70
2023-08-17T12:06:00.706Z,11.80
2023-08-17T12:08:27.910Z,12.82
2023-08-17T12:10:55.277Z,12.32
2023-08-17T12:13:30.906Z,12.88
2023-08-17T12:15:58.602Z,12.73
2023-08-17T12:18:26.912Z,12.43
2023-08-17T12:20:57.353Z,13.90
2023-08-17T12:23:24.780Z,14.20
2023-08-17T12:25:56.075Z,14.18
2023-08-17T12:28:24.573Z,11.40
2023-08-17T12:30:59.531Z,14.25
2023-08-17T12:33:26.896Z,14.25
2023-08-17T12:35:54.735Z,14.13
2023-08-17T12:38:21.978Z,16.20
2023-08-17T12:40:49.218Z,12.23
2023-08-17T12:43:16.408Z,11.38
2023-08-17T12:45:43.661Z,12.00
2023-08-17T12:48:10.952Z,13.73
2023-08-17T12:50:43.547Z,12.75
2023-08-17T12:53:11.261Z,14.55
2023-08-17T12:55:38.633Z,12.48
2023-08-17T12:58:06.865Z,11.60
2023-08-17T13:00:34.305Z,10.15
2023-08-17T13:03:01.694Z,12.57
2023-08-17T13:05:28.942Z,11.77
2023-08-17T13:07:56.534Z,10.23
2023-08-17T13:10:23.858Z,10.25
2023-08-17T13:12:55.768Z,10.75
2023-08-17T13:15:23.818Z,10.63
2023-08-17T13:17:51.219Z,11.32
2023-08-17T13:20:18.485Z,10.05
2023-08-17T13:22:45.888Z,10.73
2023-08-17T13:25:13.108Z,9.07
2023-08-17T13:27:40.347Z,11.00
2023-08-17T13:30:07.887Z,9.88
2023-08-17T13:32:35.178Z,8.82
2023-08-17T13:35:03.615Z,10.57
2023-08-17T13:37:31.020Z,8.38
2023-08-17T13:40:01.425Z,9.32
2023-08-17T13:42:29.102Z,9.63
2023-08-17T13:44:56.740Z,9.07
2023-08-17T13:47:24.236Z,9.40
2023-08-17T13:49:51.518Z,9.27
2023-08-17T13:52:19.040Z,8.48
2023-08-17T13:54:46.793Z,9.63
2023-08-17T13:57:14.054Z,8.38
2023-08-17T13:59:41.283Z,9.15
2023-08-17T14:02:09.560Z,9.60
2023-08-17T14:04:37.148Z,9.77
2023-08-17T14:07:05.681Z,8.52
2023-08-17T14:09:33.096Z,8.25
2023-08-17T14:12:01.010Z,8.05
2023-08-17T14:14:28.380Z,7.15
2023-08-17T14:16:56.181Z,6.85
2023-08-17T14:19:23.466Z,7.30
2023-08-17T14:21:50.764Z,7.97
2023-08-17T14:24:17.959Z,9.80
2023-08-17T14:26:45.275Z,7.30
2023-08-17T14:29:12.506Z,8.63
2023-08-17T14:31:39.771Z,7.50
2023-08-17T14:34:07.408Z,7.93
2023-08-17T14:36:34.819Z,6.88
2023-08-17T14:39:02.082Z,7.25
2023-08-17T14:41:33.256Z,8.35
2023-08-17T14:44:02.585Z,6.85
2023-08-17T14:46:30.320Z,6.72
2023-08-17T14:48:57.634Z,7.50
2023-08-17T14:51:31.051Z,7.28
2023-08-17T14:53:58.792Z,6.70
2023-08-17T14:56:26.047Z,7.28
2023-08-17T14:58:53.287Z,6.53
2023-08-17T15:01:20.564Z,7.13
2023-08-17T15:03:48.202Z,6.88
2023-08-17T15:06:28.502Z,6.85
2023-08-17T15:09:00.688Z,6.80
2023-08-17T15:11:27.905Z,6.80
2023-08-17T15:13:55.258Z,6.72
2023-08-17T15:16:26.620Z,8.05
2023-08-17T15:18:54.100Z,7.97
2023-08-17T15:21:21.513Z,6.85
2023-08-17T15:23:48.843Z,7.50
2023-08-17T15:26:16.089Z,7.85
2023-08-17T15:28:43.270Z,6.70
2023-08-17T15:31:14.009Z,7.13
2023-08-17T15:33:41.534Z,6.40
2023-08-17T15:36:08.872Z,6.72
2023-08-17T15:38:36.210Z,7.10
2023-08-17T15:41:04.683Z,6.97
2023-08-17T15:43:32.086Z,7.55
2023-08-17T15:45:59.474Z,7.00
2023-08-17T15:48:27.927Z,7.20
2023-08-17T15:50:55.067Z,7.53
2023-08-17T15:53:22.311Z,6.88
2023-08-17T15:55:49.487Z,7.38
2023-08-17T15:58:16.699Z,8.75
2023-08-17T16:00:43.941Z,6.88
2023-08-17T16:03:13.006Z,7.90
2023-08-17T16:05:40.729Z,7.93
2023-08-17T16:08:07.985Z,8.00
2023-08-17T16:10:36.208Z,7.60
2023-08-17T16:13:03.704Z,7.32
2023-08-17T16:15:30.959Z,7.95
2023-08-17T16:20:30.742Z,7.68
2023-08-17T16:22:58.363Z,7.50
2023-08-17T16:25:29.852Z,7.53
2023-08-17T16:27:57.448Z,7.50
2023-08-17T16:30:24.974Z,7.53
2023-08-17T16:32:52.420Z,7.95
2023-08-17T16:35:19.784Z,7.22
2023-08-17T16:37:47.041Z,6.88
2023-08-17T16:40:24.210Z,7.10
2023-08-17T16:43:01.218Z,7.10
2023-08-17T16:45:31.039Z,7.47
2023-08-17T16:47:58.283Z,7.03
2023-08-17T16:50:25.528Z,6.97
2023-08-17T16:52:52.885Z,7.25
2023-08-17T16:55:20.135Z,7.78
2023-08-17T16:57:47.345Z,7.10
2023-08-17T17:00:14.798Z,7.07
2023-08-17T17:02:42.111Z,7.45
2023-08-17T17:05:09.473Z,7.07
2023-08-17T17:07:36.726Z,7.78
2023-08-17T17:10:04.025Z,7.32
2023-08-17T17:12:31.255Z,7.63
2023-08-17T17:14:59.097Z,7.40
2023-08-17T17:17:26.994Z,8.60
2023-08-17T17:19:54.444Z,8.68
2023-08-17T17:22:22.156Z,10.63
2023-08-17T17:24:49.402Z,9.00
2023-08-17T17:27:17.489Z,8.48
2023-08-17T17:29:44.727Z,9.35
2023-08-17T17:32:11.961Z,8.80
2023-08-17T17:34:39.197Z,9.68
2023-08-17T17:37:06.459Z,9.20
2023-08-17T17:39:34.117Z,13.27
2023-08-17T17:42:01.401Z,10.95
2023-08-17T17:44:28.645Z,10.90
2023-08-17T17:46:55.955Z,12.70
2023-08-17T17:49:23.263Z,12.65
2023-08-17T17:51:50.550Z,9.80
2023-08-17T17:54:17.815Z,10.55
2023-08-17T17:56:45.295Z,10.43
2023-08-17T17:59:12.855Z,14.13
2023-08-17T18:01:40.397Z,11.90
2023-08-17T18:04:07.658Z,9.68
2023-08-17T18:06:38.292Z,11.60
2023-08-17T18:09:08.762Z,11.85
2023-08-17T18:11:36.022Z,10.35
2023-08-17T18:14:03.722Z,12.18
2023-08-17T18:16:32.057Z,10.57
2023-08-17T18:18:59.536Z,10.02
2023-08-17T18:21:31.100Z,9.65
2023-08-17T18:24:01.529Z,8.65
2023-08-17T18:26:28.760Z,7.90
2023-08-17T18:28:56.697Z,8.43
2023-08-17T18:31:24.264Z,11.60
2023-08-17T18:33:51.564Z,7.43
2023-08-17T18:36:18.804Z,7.53
2023-08-17T18:38:46.055Z,8.27
2023-08-17T18:41:13.720Z,8.45
2023-08-17T18:43:40.926Z,7.82
2023-08-17T18:46:08.782Z,8.18
2023-08-17T18:48:36.083Z,9.40
2023-08-17T18:51:03.410Z,9.52
2023-08-17T18:53:30.666Z,11.45
2023-08-17T18:55:57.883Z,7.65
2023-08-17T18:58:28.209Z,8.30
2023-08-17T19:00:55.484Z,8.35
2023-08-17T19:03:22.791Z,8.63
2023-08-17T19:05:50.072Z,7.68
2023-08-17T19:08:17.272Z,7.38
2023-08-17T19:10:44.518Z,8.20
2023-08-17T19:13:11.712Z,8.98
2023-08-17T19:15:40.780Z,8.13
2023-08-17T19:18:09.975Z,47.47
2023-08-17T19:20:37.782Z,57.78
2023-08-17T19:23:05.225Z,29.40
2023-08-17T19:25:33.275Z,22.10
2023-08-17T19:28:00.582Z,33.65
2023-08-17T19:30:27.918Z,49.53
2023-08-17T19:32:59.565Z,32.40
2023-08-17T19:35:30.040Z,15.18
2023-08-17T19:37:58.170Z,9.88
2023-08-17T19:40:25.514Z,8.27
2023-08-17T19:42:52.841Z,8.45
2023-08-17T19:45:20.150Z,7.82
2023-08-17T19:47:47.656Z,7.53
2023-08-17T19:50:18.100Z,7.00
2023-08-17T19:52:45.315Z,9.50
2023-08-17T19:55:13.708Z,8.40
2023-08-17T19:57:40.997Z,7.57
2023-08-17T20:00:10.612Z,7.60
2023-08-17T20:02:37.901Z,7.72
2023-08-17T20:05:05.475Z,6.28
2023-08-17T20:07:34.742Z,7.32
2023-08-17T20:10:02.292Z,6.75
2023-08-17T20:12:30.087Z,6.88
2023-08-17T20:14:57.778Z,8.07
2023-08-17T20:17:25.036Z,6.93
2023-08-17T20:19:52.278Z,7.82
2023-08-17T20:22:19.465Z,7.03
2023-08-17T20:24:46.692Z,7.65
2023-08-17T20:27:13.952Z,18.33
2023-08-17T20:29:41.188Z,36.58
2023-08-17T20:32:08.397Z,42.63
2023-08-17T20:34:35.602Z,43.75
2023-08-17T20:37:02.917Z,42.60
2023-08-17T20:39:30.130Z,33.35
2023-08-17T20:41:57.339Z,25.45
2023-08-17T20:44:24.561Z,21.63
2023-08-17T20:46:51.761Z,15.90
2023-08-17T20:49:19.034Z,17.45
2023-08-17T20:51:46.232Z,18.30
2023-08-17T20:54:13.483Z,15.63
2023-08-17T20:56:40.687Z,14.85
2023-08-17T20:59:07.907Z,10.98
2023-08-17T21:01:35.440Z,9.82
2023-08-17T21:04:03.042Z,9.20
2023-08-17T21:06:30.334Z,8.10
2023-08-17T21:08:57.555Z,7.45
2023-08-17T21:11:24.797Z,7.85
2023-08-17T21:13:52.016Z,7.20
2023-08-17T21:16:19.345Z,6.90
2023-08-17T21:18:46.596Z,7.50
2023-08-17T21:21:13.796Z,13.35
2023-08-17T21:23:41.098Z,34.65
2023-08-17T21:26:08.372Z,27.38
2023-08-17T21:28:35.562Z,19.50
2023-08-17T21:31:03.492Z,15.90
2023-08-17T21:33:30.875Z,10.30
2023-08-17T21:35:58.691Z,9.75
2023-08-17T21:38:26.066Z,8.75
2023-08-17T21:40:58.745Z,8.65
2023-08-17T21:43:26.149Z,7.85
2023-08-17T21:45:56.255Z,8.30
2023-08-17T21:48:23.607Z,7.60
2023-08-17T21:50:50.868Z,6.70
2023-08-17T21:53:19.529Z,6.30
2023-08-17T21:55:47.279Z,8.50
2023-08-17T21:58:14.610Z,7.18
2023-08-17T22:00:43.034Z,11.38
2023-08-17T22:03:10.710Z,9.48
2023-08-17T22:05:38.808Z,7.35
2023-08-17T22:08:06.346Z,7.40
2023-08-17T22:10:33.633Z,6.90
2023-08-17T22:13:01.162Z,7.55
2023-08-17T22:15:28.469Z,7.45
2023-08-17T22:17:55.806Z,7.47
2023-08-17T22:20:23.109Z,7.45
2023-08-17T22:22:50.312Z,6.95
2023-08-17T22:25:17.559Z,7.70
2023-08-17T22:27:45.927Z,7.05
2023-08-17T22:30:13.299Z,6.38
2023-08-17T22:32:40.578Z,6.75
2023-08-17T22:35:11.288Z,7.00
2023-08-17T22:37:38.800Z,6.80
2023-08-17T22:40:07.389Z,7.43
2023-08-17T22:42:34.667Z,6.78
2023-08-17T22:45:01.936Z,7.68
2023-08-17T22:47:29.481Z,6.95
2023-08-17T22:49:56.848Z,6.70
2023-08-17T22:52:24.264Z,6.70
2023-08-17T22:54:51.500Z,6.97
2023-08-17T22:57:19.723Z,6.65
2023-08-17T22:59:47.033Z,7.40
2023-08-17T23:02:14.342Z,9.18
2023-08-17T23:04:41.656Z,7.20
2023-08-17T23:07:08.844Z,6.97
2023-08-17T23:09:36.903Z,7.20
2023-08-17T23:12:08.042Z,6.93
2023-08-17T23:14:36.076Z,6.70
2023-08-17T23:17:03.364Z,7.22
2023-08-17T23:19:30.564Z,6.55
2023-08-17T23:21:57.765Z,6.82
2023-08-17T23:24:25.043Z,6.75
2023-08-17T23:26:52.558Z,6.38
2023-08-17T23:29:19.799Z,6.75
2023-08-17T23:31:47.400Z,7.30
2023-08-17T23:34:14.677Z,6.60
2023-08-17T23:36:41.922Z,8.20
2023-08-17T23:39:09.246Z,6.72
2023-08-17T23:41:36.549Z,7.07
2023-08-17T23:44:03.832Z,6.85
2023-08-17T23:46:31.035Z,7.03
2023-08-17T23:48:58.423Z,6.70
2023-08-17T23:51:25.619Z,6.00
2023-08-17T23:53:52.812Z,6.40
2023-08-17T23:56:20.067Z,6.45
2023-08-17T23:58:49.658Z,5.95
